sensor_id;sensor_type;location;lat;lon;timestamp;pressure;altitude;pressure_sealevel;temperature;humidity
32759;BME280;19125;52.360;9.974;2023-08-24T00:00:11;86451.19;;;-145.17;58.43
32759;BME280;19125;52.360;9.974;2023-08-24T00:02:36;86482.94;;;-145.17;58.33
32759;BME280;19125;52.360;9.974;2023-08-24T00:05:02;86467.06;;;-145.17;58.24
32759;BME280;19125;52.360;9.974;2023-08-24T00:07:28;86469.06;;;-145.17;58.48
32759;BME280;19125;52.360;9.974;2023-08-24T00:09:54;86451.19;;;-145.17;58.38
32759;BME280;19125;52.360;9.974;2023-08-24T00:12:19;86522.63;;;-145.17;58.32
32759;BME280;19125;52.360;9.974;2023-08-24T00:14:45;86477.00;;;-145.17;58.28
32759;BME280;19125;52.360;9.974;2023-08-24T00:17:10;86457.16;;;-145.17;58.09
32759;BME280;19125;52.360;9.974;2023-08-24T00:19:36;86486.91;;;-145.17;58.41
32759;BME280;19125;52.360;9.974;2023-08-24T00:22:04;86480.97;;;-145.17;58.49
32759;BME280;19125;52.360;9.974;2023-08-24T00:24:29;86520.66;;;-145.17;58.73
32759;BME280;19125;52.360;9.974;2023-08-24T00:26:55;86556.38;;;-145.17;58.96
32759;BME280;19125;52.360;9.974;2023-08-24T00:29:20;86592.09;;;-145.17;58.79
32759;BME280;19125;52.360;9.974;2023-08-24T00:31:47;86536.53;;;-145.17;58.83
32759;BME280;19125;52.360;9.974;2023-08-24T00:34:12;86580.19;;;-145.17;58.94
32759;BME280;19125;52.360;9.974;2023-08-24T00:36:38;86568.28;;;-145.17;59.40
32759;BME280;19125;52.360;9.974;2023-08-24T00:39:03;86596.06;;;-145.17;59.42
32759;BME280;19125;52.360;9.974;2023-08-24T00:41:29;86605.97;;;-145.17;59.50
32759;BME280;19125;52.360;9.974;2023-08-24T00:43:54;86607.97;;;-145.17;59.62
32759;BME280;19125;52.360;9.974;2023-08-24T00:46:19;86683.38;;;-145.17;59.73
32759;BME280;19125;52.360;9.974;2023-08-24T00:48:45;86629.81;;;-145.17;59.75
32759;BME280;19125;52.360;9.974;2023-08-24T00:51:11;86611.94;;;-145.17;59.67
32759;BME280;19125;52.360;9.974;2023-08-24T00:53:37;86637.75;;;-145.17;59.73
32759;BME280;19125;52.360;9.974;2023-08-24T00:56:03;86645.69;;;-145.17;59.78
32759;BME280;19125;52.360;9.974;2023-08-24T00:58:29;86627.81;;;-145.17;59.90
32759;BME280;19125;52.360;9.974;2023-08-24T01:00:56;86641.72;;;-145.17;59.88
32759;BME280;19125;52.360;9.974;2023-08-24T01:03:22;86695.28;;;-145.17;59.96
32759;BME280;19125;52.360;9.974;2023-08-24T01:05:48;86653.63;;;-145.17;60.18
32759;BME280;19125;52.360;9.974;2023-08-24T01:08:14;86631.78;;;-145.17;60.33
32759;BME280;19125;52.360;9.974;2023-08-24T01:13:19;86701.25;;;-145.17;60.76
32759;BME280;19125;52.360;9.974;2023-08-24T01:16:19;86687.34;;;-145.17;60.38
32759;BME280;19125;52.360;9.974;2023-08-24T01:18:54;86681.41;;;-145.17;60.24
32759;BME280;19125;52.360;9.974;2023-08-24T01:21:20;86707.19;;;-145.17;60.28
32759;BME280;19125;52.360;9.974;2023-08-24T01:24:41;86725.06;;;-145.17;60.43
32759;BME280;19125;52.360;9.974;2023-08-24T01:26:58;86701.25;;;-145.17;60.59
32759;BME280;19125;52.360;9.974;2023-08-24T01:29:25;86717.13;;;-145.17;60.68
32759;BME280;19125;52.360;9.974;2023-08-24T01:31:50;86719.09;;;-145.17;60.74
32759;BME280;19125;52.360;9.974;2023-08-24T01:34:16;86721.09;;;-145.17;60.79
32759;BME280;19125;52.360;9.974;2023-08-24T01:36:43;86770.72;;;-145.17;60.95
32759;BME280;19125;52.360;9.974;2023-08-24T01:39:28;86733.00;;;-145.17;60.99
32759;BME280;19125;52.360;9.974;2023-08-24T01:41:57;86772.69;;;-145.17;60.95
32759;BME280;19125;52.360;9.974;2023-08-24T01:44:26;86790.56;;;-145.17;60.89
32759;BME280;19125;52.360;9.974;2023-08-24T01:46:54;86824.28;;;-145.17;61.13
32759;BME280;19125;52.360;9.974;2023-08-24T01:49:22;86796.50;;;-145.17;61.27
32759;BME280;19125;52.360;9.974;2023-08-24T01:51:49;86826.28;;;-145.17;61.42
32759;BME280;19125;52.360;9.974;2023-08-24T01:54:15;86790.56;;;-145.17;61.54
32759;BME280;19125;52.360;9.974;2023-08-24T01:56:40;86806.44;;;-145.17;61.49
32759;BME280;19125;52.360;9.974;2023-08-24T01:59:06;86840.16;;;-145.17;61.72
32759;BME280;19125;52.360;9.974;2023-08-24T02:01:31;86840.16;;;-145.17;61.84
32759;BME280;19125;52.360;9.974;2023-08-24T02:03:56;86802.47;;;-145.17;62.10
32759;BME280;19125;52.360;9.974;2023-08-24T02:06:22;86740.94;;;-145.17;62.13
32759;BME280;19125;52.360;9.974;2023-08-24T02:08:47;86748.88;;;-145.17;62.41
32759;BME280;19125;52.360;9.974;2023-08-24T02:11:12;86736.97;;;-145.17;62.61
32759;BME280;19125;52.360;9.974;2023-08-24T02:13:38;86615.91;;;-145.17;62.52
32759;BME280;19125;52.360;9.974;2023-08-24T02:16:05;86590.09;;;-145.17;62.67
32759;BME280;19125;52.360;9.974;2023-08-24T02:18:33;86520.66;;;-145.17;62.98
32759;BME280;19125;52.360;9.974;2023-08-24T02:20:59;86413.47;;;-145.17;63.10
32759;BME280;19125;52.360;9.974;2023-08-24T02:23:24;86304.34;;;-145.17;63.15
32759;BME280;19125;52.360;9.974;2023-08-24T02:25:50;86207.09;;;-145.17;63.10
32759;BME280;19125;52.360;9.974;2023-08-24T02:28:15;86169.41;;;-145.17;63.06
32759;BME280;19125;52.360;9.974;2023-08-24T02:30:40;86064.22;;;-145.17;63.45
32759;BME280;19125;52.360;9.974;2023-08-24T02:33:06;85996.75;;;-145.17;63.39
32759;BME280;19125;52.360;9.974;2023-08-24T02:35:31;85699.13;;;-145.17;63.54
32759;BME280;19125;52.360;9.974;2023-08-24T02:37:57;85314.22;;;-145.17;63.72
32759;BME280;19125;52.360;9.974;2023-08-24T02:40:23;85020.59;;;-145.17;63.88
32759;BME280;19125;52.360;9.974;2023-08-24T02:42:48;84826.19;;;-145.17;64.04
32759;BME280;19125;52.360;9.974;2023-08-24T02:45:13;84691.31;;;-145.17;63.80
32759;BME280;19125;52.360;9.974;2023-08-24T02:47:39;84604.03;;;-145.17;63.67
32759;BME280;19125;52.360;9.974;2023-08-24T02:50:05;84834.13;;;-145.17;63.67
32759;BME280;19125;52.360;9.974;2023-08-24T02:52:31;85058.31;;;-145.17;63.43
32759;BME280;19125;52.360;9.974;2023-08-24T02:54:57;84973.00;;;-145.17;63.82
32759;BME280;19125;52.360;9.974;2023-08-24T02:57:23;84776.59;;;-145.17;63.47
32759;BME280;19125;52.360;9.974;2023-08-24T02:59:48;84544.53;;;-145.17;63.86
32759;BME280;19125;52.360;9.974;2023-08-24T03:02:13;84284.69;;;-145.17;63.96
32759;BME280;19125;52.360;9.974;2023-08-24T03:04:39;84207.34;;;-145.17;63.86
32759;BME280;19125;52.360;9.974;2023-08-24T03:07:04;84171.63;;;-145.17;63.72
32759;BME280;19125;52.360;9.974;2023-08-24T03:09:33;84143.88;;;-145.17;63.48
32759;BME280;19125;52.360;9.974;2023-08-24T03:11:58;83828.53;;;-145.17;63.73
32759;BME280;19125;52.360;9.974;2023-08-24T03:14:24;83626.25;;;-145.17;63.96
32759;BME280;19125;52.360;9.974;2023-08-24T03:16:49;83570.72;;;-145.17;64.00
32759;BME280;19125;52.360;9.974;2023-08-24T03:19:15;83513.19;;;-145.17;63.88
32759;BME280;19125;52.360;9.974;2023-08-24T03:21:43;83644.09;;;-145.17;64.00
32759;BME280;19125;52.360;9.974;2023-08-24T03:24:08;83477.50;;;-145.17;63.60
32759;BME280;19125;52.360;9.974;2023-08-24T03:26:34;83279.22;;;-145.17;63.96
32759;BME280;19125;52.360;9.974;2023-08-24T03:28:59;82946.09;;;-145.17;63.94
32759;BME280;19125;52.360;9.974;2023-08-24T03:31:24;82537.66;;;-145.17;64.08
32759;BME280;19125;52.360;9.974;2023-08-24T03:33:51;81931.03;;;-145.17;64.18
32759;BME280;19125;52.360;9.974;2023-08-24T03:36:16;81207.56;;;-145.17;64.21
32759;BME280;19125;52.360;9.974;2023-08-24T03:38:42;80583.31;;;-145.17;64.39
32759;BME280;19125;52.360;9.974;2023-08-24T03:41:07;79566.88;;;-145.17;64.55
32759;BME280;19125;52.360;9.974;2023-08-24T03:43:33;78279.34;;;-145.17;64.61
32759;BME280;19125;52.360;9.974;2023-08-24T03:46:00;76552.75;;;-145.17;64.95
32759;BME280;19125;52.360;9.974;2023-08-24T03:48:26;74462.78;;;-145.17;65.18
32759;BME280;19125;52.360;9.974;2023-08-24T03:50:55;72542.03;;;-145.17;65.36
32759;BME280;19125;52.360;9.974;2023-08-24T03:53:21;70141.91;;;-145.17;65.31
32759;BME280;19125;52.360;9.974;2023-08-24T03:55:48;67790.63;;;-145.17;65.54
32759;BME280;19125;52.360;9.974;2023-08-24T03:58:14;65022.22;;;-145.17;65.72
32759;BME280;19125;52.360;9.974;2023-08-24T04:00:39;63001.44;;;-145.17;65.93
32759;BME280;19125;52.360;9.974;2023-08-24T04:03:05;60981.69;;;-145.17;65.91
32759;BME280;19125;52.360;9.974;2023-08-24T04:05:31;59215.22;;;-145.17;65.91
32759;BME280;19125;52.360;9.974;2023-08-24T04:07:56;58206.19;;;-145.17;65.60
32759;BME280;19125;52.360;9.974;2023-08-24T04:10:21;57953.97;;;-145.17;65.86
32759;BME280;19125;52.360;9.974;2023-08-24T04:12:47;57953.97;;;-145.17;65.71
32759;BME280;19125;52.360;9.974;2023-08-24T04:15:12;58206.19;;;-145.17;65.96
32759;BME280;19125;52.360;9.974;2023-08-24T04:17:38;57449.56;;;-145.17;65.73
32759;BME280;19125;52.360;9.974;2023-08-24T04:20:03;57197.41;;;-145.17;66.15
32759;BME280;19125;52.360;9.974;2023-08-24T04:22:31;56188.88;;;-145.17;65.84
32759;BME280;19125;52.360;9.974;2023-08-24T04:24:57;54928.56;;;-145.17;66.09
32759;BME280;19125;52.360;9.974;2023-08-24T04:27:22;54424.56;;;-145.17;66.08
32759;BME280;19125;52.360;9.974;2023-08-24T04:29:48;53416.72;;;-145.17;65.89
32759;BME280;19125;52.360;9.974;2023-08-24T04:32:14;53164.81;;;-145.17;66.05
32759;BME280;19125;52.360;9.974;2023-08-24T04:34:39;52157.31;;;-145.17;66.04
32759;BME280;19125;52.360;9.974;2023-08-24T04:37:05;52157.31;;;-145.17;66.14
32759;BME280;19125;52.360;9.974;2023-08-24T04:39:31;51401.84;;;-145.17;66.16
32759;BME280;19125;52.360;9.974;2023-08-24T04:41:57;51150.06;;;-145.17;66.01
32759;BME280;19125;52.360;9.974;2023-08-24T04:44:23;51150.06;;;-145.17;66.11
32759;BME280;19125;52.360;9.974;2023-08-24T04:46:49;51150.06;;;-145.17;65.82
32759;BME280;19125;52.360;9.974;2023-08-24T04:49:14;51401.84;;;-145.17;65.80
32759;BME280;19125;52.360;9.974;2023-08-24T04:51:39;50646.53;;;-145.17;65.86
32759;BME280;19125;52.360;9.974;2023-08-24T04:54:05;50143.06;;;-145.17;65.89
32759;BME280;19125;52.360;9.974;2023-08-24T04:56:30;50646.53;;;-145.17;65.80
32759;BME280;19125;52.360;9.974;2023-08-24T04:58:57;51150.06;;;-145.17;65.57
32759;BME280;19125;52.360;9.974;2023-08-24T05:01:23;53668.66;;;-145.17;65.31
32759;BME280;19125;52.360;9.974;2023-08-24T05:03:50;57953.97;;;-145.17;64.51
32759;BME280;19125;52.360;9.974;2023-08-24T05:06:16;66489.13;;;-145.17;64.15
32759;BME280;19125;52.360;9.974;2023-08-24T05:08:41;74003.78;;;-145.17;63.72
32759;BME280;19125;52.360;9.974;2023-08-24T05:11:14;78713.09;;;-145.17;63.16
32759;BME280;19125;52.360;9.974;2023-08-24T05:13:40;82569.38;;;-145.17;62.61
32759;BME280;19125;52.360;9.974;2023-08-24T05:16:06;84693.28;;;-145.17;62.12
32759;BME280;19125;52.360;9.974;2023-08-24T05:18:31;85756.66;;;-145.17;61.63
32759;BME280;19125;52.360;9.974;2023-08-24T05:20:56;86304.34;;;-145.17;61.27
32759;BME280;19125;52.360;9.974;2023-08-24T05:23:22;86506.75;;;-145.17;61.12
32759;BME280;19125;52.360;9.974;2023-08-24T05:25:47;86627.81;;;-145.17;60.99
32759;BME280;19125;52.360;9.974;2023-08-24T05:28:12;86719.09;;;-145.17;61.08
32759;BME280;19125;52.360;9.974;2023-08-24T05:30:38;86750.88;;;-145.17;60.55
32759;BME280;19125;52.360;9.974;2023-08-24T05:33:03;86750.88;;;-145.17;60.46
32759;BME280;19125;52.360;9.974;2023-08-24T05:35:29;86723.06;;;-145.17;60.49
32759;BME280;19125;52.360;9.974;2023-08-24T05:37:54;86709.19;;;-145.17;60.52
32759;BME280;19125;52.360;9.974;2023-08-24T05:40:19;86707.19;;;-145.17;60.49
32759;BME280;19125;52.360;9.974;2023-08-24T05:42:45;86796.50;;;-145.17;60.40
32759;BME280;19125;52.360;9.974;2023-08-24T05:45:10;86709.19;;;-145.17;60.43
32759;BME280;19125;52.360;9.974;2023-08-24T05:47:37;86685.38;;;-145.17;60.23
32759;BME280;19125;52.360;9.974;2023-08-24T05:50:02;86701.25;;;-145.17;60.29
32759;BME280;19125;52.360;9.974;2023-08-24T05:52:27;86693.31;;;-145.17;60.33
32759;BME280;19125;52.360;9.974;2023-08-24T05:54:53;86701.25;;;-145.17;60.25
32759;BME280;19125;52.360;9.974;2023-08-24T05:57:18;86731.00;;;-145.17;60.37
32759;BME280;19125;52.360;9.974;2023-08-24T05:59:43;86810.41;;;-145.17;60.83
32759;BME280;19125;52.360;9.974;2023-08-24T06:02:09;86750.88;;;-145.17;60.72
32759;BME280;19125;52.360;9.974;2023-08-24T06:04:34;86778.66;;;-145.17;60.82
32759;BME280;19125;52.360;9.974;2023-08-24T06:06:59;86840.16;;;-145.17;61.00
32759;BME280;19125;52.360;9.974;2023-08-24T06:09:25;86850.09;;;-145.17;61.04
32759;BME280;19125;52.360;9.974;2023-08-24T06:11:51;86810.41;;;-145.17;60.84
32759;BME280;19125;52.360;9.974;2023-08-24T06:14:16;86877.88;;;-145.17;61.06
32759;BME280;19125;52.360;9.974;2023-08-24T06:16:41;86858.03;;;-145.17;61.28
32759;BME280;19125;52.360;9.974;2023-08-24T06:19:07;86850.09;;;-145.17;61.02
32759;BME280;19125;52.360;9.974;2023-08-24T06:21:32;86846.13;;;-145.17;61.00
32759;BME280;19125;52.360;9.974;2023-08-24T06:23:57;86865.97;;;-145.17;60.77
32759;BME280;19125;52.360;9.974;2023-08-24T06:26:23;86877.88;;;-145.17;60.71
32759;BME280;19125;52.360;9.974;2023-08-24T06:28:48;86875.91;;;-145.17;60.44
32759;BME280;19125;52.360;9.974;2023-08-24T06:31:13;86873.91;;;-145.17;60.39
32759;BME280;19125;52.360;9.974;2023-08-24T06:33:41;86864.00;;;-145.17;60.29
32759;BME280;19125;52.360;9.974;2023-08-24T06:36:06;86854.06;;;-145.17;60.31
32759;BME280;19125;52.360;9.974;2023-08-24T06:38:33;86834.22;;;-145.17;60.17
32759;BME280;19125;52.360;9.974;2023-08-24T06:40:59;86856.06;;;-145.17;60.19
32759;BME280;19125;52.360;9.974;2023-08-24T06:43:25;86824.28;;;-145.17;60.05
32759;BME280;19125;52.360;9.974;2023-08-24T06:45:51;86838.19;;;-145.17;60.17
32759;BME280;19125;52.360;9.974;2023-08-24T06:48:16;86786.59;;;-145.17;60.11
32759;BME280;19125;52.360;9.974;2023-08-24T06:50:43;86782.63;;;-145.17;60.14
32759;BME280;19125;52.360;9.974;2023-08-24T06:53:08;86762.78;;;-145.17;59.83
32759;BME280;19125;52.360;9.974;2023-08-24T06:55:33;86703.22;;;-145.17;59.66
32759;BME280;19125;52.360;9.974;2023-08-24T06:57:59;86738.94;;;-145.17;59.67
32759;BME280;19125;52.360;9.974;2023-08-24T07:00:24;86709.19;;;-145.17;59.68
32759;BME280;19125;52.360;9.974;2023-08-24T07:02:50;86673.47;;;-145.17;59.36
32759;BME280;19125;52.360;9.974;2023-08-24T07:05:16;86623.84;;;-145.17;59.10
32759;BME280;19125;52.360;9.974;2023-08-24T07:07:45;86558.34;;;-145.17;58.83
32759;BME280;19125;52.360;9.974;2023-08-24T07:10:11;86516.69;;;-145.17;58.44
32759;BME280;19125;52.360;9.974;2023-08-24T07:12:36;86477.00;;;-145.17;58.18
32759;BME280;19125;52.360;9.974;2023-08-24T07:15:03;86449.19;;;-145.17;58.58
32759;BME280;19125;52.360;9.974;2023-08-24T07:17:29;86361.88;;;-145.17;58.07
32759;BME280;19125;52.360;9.974;2023-08-24T07:19:54;86252.75;;;-145.17;57.36
32759;BME280;19125;52.360;9.974;2023-08-24T07:22:20;86090.03;;;-145.17;56.73
32759;BME280;19125;52.360;9.974;2023-08-24T07:24:48;85921.34;;;-145.17;55.97
32759;BME280;19125;52.360;9.974;2023-08-24T07:27:18;85675.31;;;-145.17;54.78
32759;BME280;19125;52.360;9.974;2023-08-24T07:29:43;85496.75;;;-145.17;54.12
32759;BME280;19125;52.360;9.974;2023-08-24T07:32:09;85322.16;;;-145.17;53.05
32759;BME280;19125;52.360;9.974;2023-08-24T07:34:34;85222.97;;;-145.17;52.03
32759;BME280;19125;52.360;9.974;2023-08-24T07:36:59;85107.91;;;-145.17;50.87
32759;BME280;19125;52.360;9.974;2023-08-24T07:39:25;85119.81;;;-145.17;50.98
32759;BME280;19125;52.360;9.974;2023-08-24T07:41:51;85129.72;;;-145.17;50.80
32759;BME280;19125;52.360;9.974;2023-08-24T07:44:16;85088.06;;;-145.17;50.45
32759;BME280;19125;52.360;9.974;2023-08-24T07:46:42;85072.19;;;-145.17;50.51
32759;BME280;19125;52.360;9.974;2023-08-24T07:49:07;85024.56;;;-145.17;49.84
32759;BME280;19125;52.360;9.974;2023-08-24T07:51:33;84984.91;;;-145.17;49.60
32759;BME280;19125;52.360;9.974;2023-08-24T07:53:59;84923.41;;;-145.17;49.18
32759;BME280;19125;52.360;9.974;2023-08-24T07:56:24;84859.94;;;-145.17;47.90
32759;BME280;19125;52.360;9.974;2023-08-24T07:58:50;84852.00;;;-145.17;47.77
32759;BME280;19125;52.360;9.974;2023-08-24T08:01:15;84903.56;;;-145.17;48.03
32759;BME280;19125;52.360;9.974;2023-08-24T08:03:40;84937.28;;;-145.17;48.45
32759;BME280;19125;52.360;9.974;2023-08-24T08:06:06;84959.13;;;-145.17;48.75
32759;BME280;19125;52.360;9.974;2023-08-24T08:08:31;84917.47;;;-145.17;48.96
32759;BME280;19125;52.360;9.974;2023-08-24T08:10:58;84913.50;;;-145.17;49.19
32759;BME280;19125;52.360;9.974;2023-08-24T08:13:23;84899.59;;;-145.17;49.18
32759;BME280;19125;52.360;9.974;2023-08-24T08:15:49;84830.16;;;-145.17;48.74
32759;BME280;19125;52.360;9.974;2023-08-24T08:18:14;84756.78;;;-145.17;47.88
32759;BME280;19125;52.360;9.974;2023-08-24T08:20:39;84758.75;;;-145.17;47.57
32759;BME280;19125;52.360;9.974;2023-08-24T08:23:05;84756.78;;;-145.17;47.11
32759;BME280;19125;52.360;9.974;2023-08-24T08:25:30;84677.44;;;-145.17;46.92
32759;BME280;19125;52.360;9.974;2023-08-24T08:27:55;84709.16;;;-145.17;46.49
32759;BME280;19125;52.360;9.974;2023-08-24T08:30:21;84651.63;;;-145.17;46.50
32759;BME280;19125;52.360;9.974;2023-08-24T08:32:46;84608.00;;;-145.17;46.14
32759;BME280;19125;52.360;9.974;2023-08-24T08:35:11;84592.13;;;-145.17;45.89
32759;BME280;19125;52.360;9.974;2023-08-24T08:37:37;84558.41;;;-145.17;45.61
32759;BME280;19125;52.360;9.974;2023-08-24T08:40:03;84548.50;;;-145.17;45.32
32759;BME280;19125;52.360;9.974;2023-08-24T08:42:32;84594.13;;;-145.17;45.11
32759;BME280;19125;52.360;9.974;2023-08-24T08:45:02;84520.72;;;-145.17;44.71
32759;BME280;19125;52.360;9.974;2023-08-24T08:47:29;84524.69;;;-145.17;44.45
32759;BME280;19125;52.360;9.974;2023-08-24T08:49:55;84492.94;;;-145.17;44.64
32759;BME280;19125;52.360;9.974;2023-08-24T08:52:20;84479.06;;;-145.17;44.33
32759;BME280;19125;52.360;9.974;2023-08-24T08:54:46;84504.84;;;-145.17;44.60
32759;BME280;19125;52.360;9.974;2023-08-24T08:57:11;84425.50;;;-145.17;44.23
32759;BME280;19125;52.360;9.974;2023-08-24T08:59:38;84401.72;;;-145.17;42.94
32759;BME280;19125;52.360;9.974;2023-08-24T09:02:04;84439.41;;;-145.17;42.33
32759;BME280;19125;52.360;9.974;2023-08-24T09:04:32;84397.75;;;-145.17;42.46
32759;BME280;19125;52.360;9.974;2023-08-24T09:06:58;84417.56;;;-145.17;42.48
32759;BME280;19125;52.360;9.974;2023-08-24T09:09:26;84407.66;;;-145.17;42.38
32759;BME280;19125;52.360;9.974;2023-08-24T09:11:53;84373.94;;;-145.17;42.45
32759;BME280;19125;52.360;9.974;2023-08-24T09:14:18;84342.22;;;-145.17;41.99
32759;BME280;19125;52.360;9.974;2023-08-24T09:16:44;84338.25;;;-145.17;41.68
32759;BME280;19125;52.360;9.974;2023-08-24T09:19:12;84282.69;;;-145.17;41.61
32759;BME280;19125;52.360;9.974;2023-08-24T09:21:39;84268.81;;;-145.17;41.55
32759;BME280;19125;52.360;9.974;2023-08-24T09:24:06;84282.69;;;-145.17;41.25
32759;BME280;19125;52.360;9.974;2023-08-24T09:26:36;84256.91;;;-145.17;41.44
32759;BME280;19125;52.360;9.974;2023-08-24T09:29:15;84292.63;;;-145.17;41.31
32759;BME280;19125;52.360;9.974;2023-08-24T09:31:41;84250.97;;;-145.17;41.97
32759;BME280;19125;52.360;9.974;2023-08-24T09:34:10;84231.13;;;-145.17;41.62
32759;BME280;19125;52.360;9.974;2023-08-24T09:36:37;84141.88;;;-145.17;40.90
32759;BME280;19125;52.360;9.974;2023-08-24T09:39:04;84116.09;;;-145.17;40.45
32759;BME280;19125;52.360;9.974;2023-08-24T09:41:48;84131.97;;;-145.17;40.50
32759;BME280;19125;52.360;9.974;2023-08-24T09:44:14;84112.13;;;-145.17;40.19
32759;BME280;19125;52.360;9.974;2023-08-24T09:46:40;84050.66;;;-145.17;40.01
32759;BME280;19125;52.360;9.974;2023-08-24T09:49:09;84056.59;;;-145.17;39.29
32759;BME280;19125;52.360;9.974;2023-08-24T09:51:37;84096.25;;;-145.17;38.74
32759;BME280;19125;52.360;9.974;2023-08-24T09:54:09;84096.25;;;-145.17;39.12
32759;BME280;19125;52.360;9.974;2023-08-24T09:56:39;84080.41;;;-145.17;38.80
32759;BME280;19125;52.360;9.974;2023-08-24T10:01:39;84080.41;;;-145.17;38.91
32759;BME280;19125;52.360;9.974;2023-08-24T10:04:06;84116.09;;;-145.17;39.16
32759;BME280;19125;52.360;9.974;2023-08-24T10:06:34;84048.66;;;-145.17;39.19
32759;BME280;19125;52.360;9.974;2023-08-24T10:09:02;84072.47;;;-145.17;38.89
32759;BME280;19125;52.360;9.974;2023-08-24T10:11:35;83977.25;;;-145.17;38.53
32759;BME280;19125;52.360;9.974;2023-08-24T10:14:09;83989.16;;;-145.17;38.22
32759;BME280;19125;52.360;9.974;2023-08-24T10:16:36;83981.22;;;-145.17;37.95
32759;BME280;19125;52.360;9.974;2023-08-24T10:19:02;83949.50;;;-145.17;37.59
32759;BME280;19125;52.360;9.974;2023-08-24T10:21:29;83931.66;;;-145.17;37.07
32759;BME280;19125;52.360;9.974;2023-08-24T10:23:57;83941.56;;;-145.17;36.83
32759;BME280;19125;52.360;9.974;2023-08-24T10:26:23;83969.34;;;-145.17;37.02
32759;BME280;19125;52.360;9.974;2023-08-24T10:28:50;83911.81;;;-145.17;36.64
32759;BME280;19125;52.360;9.974;2023-08-24T10:31:16;83890.00;;;-145.17;36.87
32759;BME280;19125;52.360;9.974;2023-08-24T10:33:42;83834.47;;;-145.17;36.46
32759;BME280;19125;52.360;9.974;2023-08-24T10:36:10;83784.88;;;-145.17;35.74
32759;BME280;19125;52.360;9.974;2023-08-24T10:38:40;83763.06;;;-145.17;35.74
32759;BME280;19125;52.360;9.974;2023-08-24T10:41:09;83723.41;;;-145.17;35.78
32759;BME280;19125;52.360;9.974;2023-08-24T10:43:38;83717.47;;;-145.17;35.43
32759;BME280;19125;52.360;9.974;2023-08-24T10:46:04;83721.44;;;-145.17;34.96
32759;BME280;19125;52.360;9.974;2023-08-24T10:53:44;83751.19;;;-145.17;34.94
32759;BME280;19125;52.360;9.974;2023-08-24T10:56:11;83796.78;;;-145.17;35.36
32759;BME280;19125;52.360;9.974;2023-08-24T10:58:37;83778.94;;;-145.17;35.21
32759;BME280;19125;52.360;9.974;2023-08-24T11:01:02;83663.91;;;-145.17;35.11
32759;BME280;19125;52.360;9.974;2023-08-24T11:03:31;83644.09;;;-145.17;35.03
32759;BME280;19125;52.360;9.974;2023-08-24T11:05:57;83580.63;;;-145.17;34.52
32759;BME280;19125;52.360;9.974;2023-08-24T11:08:46;83614.34;;;-145.17;34.34
32759;BME280;19125;52.360;9.974;2023-08-24T11:11:19;83620.28;;;-145.17;34.47
32759;BME280;19125;52.360;9.974;2023-08-24T11:14:17;83604.41;;;-145.17;34.56
32759;BME280;19125;52.360;9.974;2023-08-24T11:16:45;83546.91;;;-145.17;33.77
32759;BME280;19125;52.360;9.974;2023-08-24T11:19:12;83544.94;;;-145.17;34.08
32759;BME280;19125;52.360;9.974;2023-08-24T11:21:39;83509.22;;;-145.17;33.93
32759;BME280;19125;52.360;9.974;2023-08-24T11:24:05;83544.94;;;-145.17;33.87
32759;BME280;19125;52.360;9.974;2023-08-24T11:26:30;83427.94;;;-145.17;33.75
32759;BME280;19125;52.360;9.974;2023-08-24T11:28:56;83461.63;;;-145.17;32.87
32759;BME280;19125;52.360;9.974;2023-08-24T11:31:25;83429.91;;;-145.17;32.61
32759;BME280;19125;52.360;9.974;2023-08-24T11:33:54;83459.66;;;-145.17;32.58
32759;BME280;19125;52.360;9.974;2023-08-24T11:36:23;83406.13;;;-145.17;32.44
32759;BME280;19125;52.360;9.974;2023-08-24T11:38:52;83402.16;;;-145.17;32.50
32759;BME280;19125;52.360;9.974;2023-08-24T11:41:18;83356.53;;;-145.17;32.24
32759;BME280;19125;52.360;9.974;2023-08-24T11:43:45;83275.25;;;-145.17;32.04
32759;BME280;19125;52.360;9.974;2023-08-24T11:46:13;83279.22;;;-145.17;31.03
32759;BME280;19125;52.360;9.974;2023-08-24T11:48:40;83195.94;;;-145.17;30.54
32759;BME280;19125;52.360;9.974;2023-08-24T11:51:10;83215.75;;;-145.17;30.67
32759;BME280;19125;52.360;9.974;2023-08-24T11:53:39;83287.13;;;-145.17;30.73
32759;BME280;19125;52.360;9.974;2023-08-24T11:56:08;83265.31;;;-145.17;30.43
32759;BME280;19125;52.360;9.974;2023-08-24T11:58:33;83277.22;;;-145.17;30.56
32759;BME280;19125;52.360;9.974;2023-08-24T12:00:58;83301.00;;;-145.17;30.78
32759;BME280;19125;52.360;9.974;2023-08-24T12:03:24;83301.00;;;-145.17;30.85
32759;BME280;19125;52.360;9.974;2023-08-24T12:05:49;83322.84;;;-145.17;31.23
32759;BME280;19125;52.360;9.974;2023-08-24T12:08:15;83304.97;;;-145.17;30.01
32759;BME280;19125;52.360;9.974;2023-08-24T12:10:43;83279.22;;;-145.17;29.74
32759;BME280;19125;52.360;9.974;2023-08-24T12:13:09;83259.38;;;-145.17;29.76
32759;BME280;19125;52.360;9.974;2023-08-24T12:15:35;83293.09;;;-145.17;29.78
32759;BME280;19125;52.360;9.974;2023-08-24T12:18:12;83283.16;;;-145.17;29.60
32759;BME280;19125;52.360;9.974;2023-08-24T12:20:40;83287.13;;;-145.17;29.50
32759;BME280;19125;52.360;9.974;2023-08-24T12:23:06;83293.09;;;-145.17;29.54
32759;BME280;19125;52.360;9.974;2023-08-24T12:25:36;83354.56;;;-145.17;29.87
32759;BME280;19125;52.360;9.974;2023-08-24T12:28:15;83320.84;;;-145.17;30.29
32759;BME280;19125;52.360;9.974;2023-08-24T12:30:51;83287.13;;;-145.17;30.24
32759;BME280;19125;52.360;9.974;2023-08-24T12:33:35;83259.38;;;-145.17;29.88
32759;BME280;19125;52.360;9.974;2023-08-24T12:36:01;83193.94;;;-145.17;29.13
32759;BME280;19125;52.360;9.974;2023-08-24T12:38:27;83172.13;;;-145.17;29.52
32759;BME280;19125;52.360;9.974;2023-08-24T12:40:53;83134.44;;;-145.17;29.21
32759;BME280;19125;52.360;9.974;2023-08-24T12:43:19;83114.63;;;-145.17;29.22
32759;BME280;19125;52.360;9.974;2023-08-24T12:45:44;83140.41;;;-145.17;29.26
32759;BME280;19125;52.360;9.974;2023-08-24T12:48:10;83134.44;;;-145.17;28.97